Time;durP1;ratioP1;P1;durP2;ratioP2;P2;SDS_P1;SDS_P2;PMS_P1;PMS_P2;Temp;Humidity;BMP_temperature;BMP_pressure;BME280_temperature;BME280_humidity;BME280_pressure;Samples;Min_cycle;Max_cycle;Signal;HPM_P1;HPM_P2
2022/09/10 00:01:37;;;;;;;5.65;1.73;;;;;;;;;;5017681;28;20404;-67
2022/09/10 00:04:07;;;;;;;6.63;1.70;;;;;;;;;;4997782;28;21250;-67
2022/09/10 00:06:34;;;;;;;6.60;1.67;;;;;;;;;;5001125;28;20029;-69
2022/09/10 00:09:00;;;;;;;7.90;1.90;;;;;;;;;;4995838;28;20862;-67
2022/09/10 00:11:31;;;;;;;6.97;1.70;;;;;;;;;;4996994;28;20025;-67
2022/09/10 00:13:57;;;;;;;8.45;1.88;;;;;;;;;;4990710;28;20028;-67
2022/09/10 00:16:24;;;;;;;7.60;1.90;;;;;;;;;;4978319;28;20443;-67
2022/09/10 00:18:50;;;;;;;8.45;2.08;;;;;;;;;;4996203;28;20025;-66
2022/09/10 00:21:19;;;;;;;8.05;2.00;;;;;;;;;;4997489;28;20115;-67
2022/09/10 00:23:45;;;;;;;11.20;2.00;;;;;;;;;;5001003;28;20591;-67
2022/09/10 00:26:22;;;;;;;7.75;2.08;;;;;;;;;;4997288;28;20033;-67
2022/09/10 00:28:52;;;;;;;8.77;1.95;;;;;;;;;;5000947;28;20075;-67
2022/09/10 00:31:18;;;;;;;8.35;2.22;;;;;;;;;;4996629;28;20505;-67
2022/09/10 00:33:44;;;;;;;6.47;1.98;;;;;;;;;;4996070;28;20029;-67
2022/09/10 00:36:18;;;;;;;6.60;1.80;;;;;;;;;;4996105;28;21001;-65
2022/09/10 00:38:45;;;;;;;7.85;2.20;;;;;;;;;;5007270;28;20033;-66
2022/09/10 00:41:11;;;;;;;10.57;2.17;;;;;;;;;;5015786;28;20032;-66
2022/09/10 00:43:51;;;;;;;7.53;2.15;;;;;;;;;;5026971;28;20029;-66
2022/09/10 00:46:24;;;;;;;12.00;2.85;;;;;;;;;;5026376;28;20403;-67
2022/09/10 00:48:51;;;;;;;7.85;2.40;;;;;;;;;;5024822;28;20021;-66
2022/09/10 00:51:18;;;;;;;10.75;2.58;;;;;;;;;;5022614;28;20043;-66
2022/09/10 00:53:45;;;;;;;6.47;1.85;;;;;;;;;;5034345;28;20099;-67
2022/09/10 00:56:11;;;;;;;10.32;2.00;;;;;;;;;;5028679;28;20116;-66
2022/09/10 00:58:37;;;;;;;9.68;1.90;;;;;;;;;;5033554;28;20555;-66
2022/09/10 01:01:03;;;;;;;9.90;2.40;;;;;;;;;;5007411;28;20036;-66
2022/09/10 01:03:31;;;;;;;9.05;1.77;;;;;;;;;;5031439;28;20420;-66
2022/09/10 01:05:57;;;;;;;8.88;2.10;;;;;;;;;;5026503;28;20028;-66
2022/09/10 01:08:25;;;;;;;9.93;2.00;;;;;;;;;;5034860;28;20020;-66
2022/09/10 01:11:00;;;;;;;11.23;2.45;;;;;;;;;;5033774;28;20029;-66
2022/09/10 01:13:38;;;;;;;10.70;2.27;;;;;;;;;;5028598;28;20024;-66
2022/09/10 01:16:17;;;;;;;9.82;2.08;;;;;;;;;;5029018;28;20262;-66
2022/09/10 01:19:10;;;;;;;7.13;2.00;;;;;;;;;;5035182;28;20036;-66
2022/09/10 01:21:43;;;;;;;9.00;2.00;;;;;;;;;;5033480;28;20428;-66
2022/09/10 01:24:09;;;;;;;7.50;2.08;;;;;;;;;;5029185;28;20072;-66
2022/09/10 01:26:53;;;;;;;9.50;2.25;;;;;;;;;;5035319;28;20112;-66
2022/09/10 01:29:46;;;;;;;8.38;2.00;;;;;;;;;;5038273;28;20992;-68
2022/09/10 01:32:14;;;;;;;12.32;2.00;;;;;;;;;;5031657;28;20027;-67
2022/09/10 01:34:41;;;;;;;8.50;1.92;;;;;;;;;;5035664;28;20460;-66
2022/09/10 01:37:10;;;;;;;10.00;2.17;;;;;;;;;;5032886;28;20099;-67
2022/09/10 01:39:37;;;;;;;11.25;2.00;;;;;;;;;;5033972;28;20036;-68
2022/09/10 01:42:03;;;;;;;8.70;1.90;;;;;;;;;;5030297;28;20032;-67
2022/09/10 01:44:43;;;;;;;11.65;2.33;;;;;;;;;;5035542;28;20029;-66
2022/09/10 01:47:16;;;;;;;6.47;1.67;;;;;;;;;;5031799;28;20098;-67
2022/09/10 01:50:01;;;;;;;9.07;1.77;;;;;;;;;;5030670;28;20116;-67
2022/09/10 01:52:37;;;;;;;9.13;1.88;;;;;;;;;;5011207;28;20040;-66
2022/09/10 01:55:09;;;;;;;8.63;1.87;;;;;;;;;;5010479;28;20041;-66
2022/09/10 01:57:35;;;;;;;10.07;1.92;;;;;;;;;;5027399;28;20044;-66
2022/09/10 02:00:09;;;;;;;10.40;2.08;;;;;;;;;;5036906;28;20105;-67
2022/09/10 02:02:44;;;;;;;9.13;1.88;;;;;;;;;;5033061;28;20115;-66
2022/09/10 02:05:11;;;;;;;10.95;1.98;;;;;;;;;;5004146;28;20025;-66
2022/09/10 02:07:38;;;;;;;9.20;1.80;;;;;;;;;;5022163;28;20033;-66
2022/09/10 02:10:06;;;;;;;9.85;2.00;;;;;;;;;;5024763;28;20023;-67
2022/09/10 02:12:32;;;;;;;7.95;1.80;;;;;;;;;;5016999;28;20043;-66
2022/09/10 02:14:58;;;;;;;9.45;1.83;;;;;;;;;;5027129;28;20134;-67
2022/09/10 02:17:26;;;;;;;11.40;1.83;;;;;;;;;;5020987;28;20475;-66
2022/09/10 02:19:54;;;;;;;9.57;1.60;;;;;;;;;;5034838;28;20416;-66
2022/09/10 02:22:24;;;;;;;8.77;1.80;;;;;;;;;;5024668;28;20424;-66
2022/09/10 02:24:51;;;;;;;7.47;1.80;;;;;;;;;;5035495;28;20582;-67
2022/09/10 02:27:17;;;;;;;10.57;2.08;;;;;;;;;;5037156;28;20228;-68
2022/09/10 02:29:43;;;;;;;9.50;1.98;;;;;;;;;;5042754;28;20035;-67
2022/09/10 02:32:09;;;;;;;8.43;2.10;;;;;;;;;;5011685;28;20134;-68
2022/09/10 02:34:36;;;;;;;10.15;2.08;;;;;;;;;;5014114;28;20029;-68
2022/09/10 02:37:02;;;;;;;9.55;2.30;;;;;;;;;;5027980;28;20036;-67
2022/09/10 02:39:29;;;;;;;7.75;1.73;;;;;;;;;;5030457;28;20139;-68
2022/09/10 02:41:56;;;;;;;6.57;1.60;;;;;;;;;;4998301;28;20036;-67
2022/09/10 02:44:22;;;;;;;8.70;1.85;;;;;;;;;;4989922;28;20716;-67
2022/09/10 02:46:48;;;;;;;8.63;1.80;;;;;;;;;;5004255;28;20608;-66
2022/09/10 02:49:14;;;;;;;8.60;1.95;;;;;;;;;;4984812;28;20581;-67
2022/09/10 02:51:41;;;;;;;9.15;1.75;;;;;;;;;;5008849;28;20353;-67
2022/09/10 02:54:07;;;;;;;8.93;1.80;;;;;;;;;;5001315;28;20145;-68
2022/09/10 02:56:34;;;;;;;8.95;2.10;;;;;;;;;;5002530;28;20123;-68
2022/09/10 02:59:00;;;;;;;12.07;2.17;;;;;;;;;;4999947;28;20116;-68
2022/09/10 03:01:27;;;;;;;9.93;1.90;;;;;;;;;;4986886;28;20037;-67
2022/09/10 03:03:54;;;;;;;9.60;2.10;;;;;;;;;;5003954;28;20107;-67
2022/09/10 03:06:21;;;;;;;8.60;1.60;;;;;;;;;;5000853;28;20685;-67
2022/09/10 03:08:47;;;;;;;10.73;2.30;;;;;;;;;;5036498;28;20028;-67
2022/09/10 03:11:15;;;;;;;8.95;1.58;;;;;;;;;;5015732;28;20651;-67
2022/09/10 03:13:44;;;;;;;9.30;1.60;;;;;;;;;;5034345;28;20290;-66
2022/09/10 03:16:12;;;;;;;12.05;1.90;;;;;;;;;;5034648;28;20120;-68
2022/09/10 03:18:39;;;;;;;10.00;1.77;;;;;;;;;;5039129;28;20053;-67
2022/09/10 03:21:14;;;;;;;7.90;1.60;;;;;;;;;;5034798;28;20035;-67
2022/09/10 03:23:41;;;;;;;9.02;1.70;;;;;;;;;;5019895;28;20562;-67
2022/09/10 03:26:08;;;;;;;8.25;1.80;;;;;;;;;;5030918;28;20372;-67
2022/09/10 03:28:36;;;;;;;9.70;2.03;;;;;;;;;;5022733;28;20028;-67
2022/09/10 03:31:03;;;;;;;11.15;1.85;;;;;;;;;;5030526;28;20039;-66
2022/09/10 03:33:29;;;;;;;7.05;1.40;;;;;;;;;;5036895;28;20066;-67
2022/09/10 03:35:55;;;;;;;11.15;1.85;;;;;;;;;;5027731;28;20043;-67
2022/09/10 03:38:22;;;;;;;7.60;1.80;;;;;;;;;;5020004;28;20294;-67
2022/09/10 03:40:48;;;;;;;7.53;1.73;;;;;;;;;;5012416;28;20029;-67
2022/09/10 03:43:14;;;;;;;10.63;1.58;;;;;;;;;;5009062;28;20467;-69
2022/09/10 03:45:40;;;;;;;10.02;1.60;;;;;;;;;;4999476;28;20543;-67
2022/09/10 03:48:06;;;;;;;9.98;1.75;;;;;;;;;;4996821;28;20422;-67
2022/09/10 03:50:32;;;;;;;6.85;1.58;;;;;;;;;;4999998;28;20033;-67
2022/09/10 03:52:59;;;;;;;6.63;1.40;;;;;;;;;;4996367;28;21018;-66
2022/09/10 03:55:25;;;;;;;8.38;1.75;;;;;;;;;;5002656;28;20632;-67
2022/09/10 03:57:51;;;;;;;8.82;1.73;;;;;;;;;;4999198;28;20029;-67
2022/09/10 04:00:17;;;;;;;10.25;1.55;;;;;;;;;;5005058;28;20909;-67
2022/09/10 04:02:45;;;;;;;7.20;1.48;;;;;;;;;;5012731;28;20021;-67
2022/09/10 04:05:11;;;;;;;7.53;1.40;;;;;;;;;;5014101;28;20056;-66
2022/09/10 04:07:37;;;;;;;7.78;1.52;;;;;;;;;;5031622;28;20224;-66
2022/09/10 04:10:03;;;;;;;8.07;1.60;;;;;;;;;;5033394;28;20315;-66
2022/09/10 04:12:29;;;;;;;6.45;1.60;;;;;;;;;;5034030;28;20492;-67
2022/09/10 04:14:56;;;;;;;8.43;1.75;;;;;;;;;;5032833;28;20433;-67
2022/09/10 04:17:23;;;;;;;8.25;1.25;;;;;;;;;;5032102;28;20065;-67
2022/09/10 04:19:49;;;;;;;9.55;1.58;;;;;;;;;;5030671;28;20029;-67
2022/09/10 04:22:16;;;;;;;7.80;1.58;;;;;;;;;;5028082;28;20056;-67
2022/09/10 04:24:43;;;;;;;6.20;1.50;;;;;;;;;;5032647;28;20394;-67
2022/09/10 04:27:09;;;;;;;11.40;2.05;;;;;;;;;;5007530;28;20582;-66
2022/09/10 04:29:36;;;;;;;8.98;1.58;;;;;;;;;;5029958;28;20103;-67
2022/09/10 04:32:03;;;;;;;8.23;1.45;;;;;;;;;;5023520;28;20055;-67
2022/09/10 04:34:29;;;;;;;7.10;1.65;;;;;;;;;;5026327;28;20021;-67
2022/09/10 04:36:55;;;;;;;6.63;1.70;;;;;;;;;;5031933;28;20043;-67
2022/09/10 04:39:21;;;;;;;9.38;1.42;;;;;;;;;;5030275;28;20048;-67
2022/09/10 04:41:47;;;;;;;7.05;1.52;;;;;;;;;;5000515;28;20587;-66
2022/09/10 04:44:13;;;;;;;10.65;1.50;;;;;;;;;;5000149;28;20353;-67
2022/09/10 04:46:41;;;;;;;8.90;1.52;;;;;;;;;;4982781;28;20523;-66
2022/09/10 04:49:07;;;;;;;11.30;1.80;;;;;;;;;;4977729;28;20520;-67
2022/09/10 04:51:33;;;;;;;5.90;1.52;;;;;;;;;;4990105;28;20676;-66
2022/09/10 04:54:00;;;;;;;6.70;1.38;;;;;;;;;;4980012;28;20049;-67
2022/09/10 04:56:26;;;;;;;6.55;1.40;;;;;;;;;;5005253;28;20037;-66
2022/09/10 04:58:52;;;;;;;6.25;1.40;;;;;;;;;;5001636;28;20566;-67
2022/09/10 05:01:19;;;;;;;7.20;1.55;;;;;;;;;;5003470;28;20652;-66
2022/09/10 05:03:45;;;;;;;8.63;1.80;;;;;;;;;;4987915;28;20634;-67
2022/09/10 05:06:11;;;;;;;6.65;1.50;;;;;;;;;;4976595;28;20459;-66
2022/09/10 05:08:37;;;;;;;7.20;1.40;;;;;;;;;;4994995;28;20067;-66
2022/09/10 05:11:04;;;;;;;7.28;1.60;;;;;;;;;;4999664;28;20281;-67
2022/09/10 05:13:30;;;;;;;7.57;1.65;;;;;;;;;;4998709;28;20463;-68
2022/09/10 05:15:57;;;;;;;6.00;1.23;;;;;;;;;;4978730;28;20471;-66
2022/09/10 05:18:25;;;;;;;6.97;1.60;;;;;;;;;;5022538;28;20158;-67
2022/09/10 05:20:51;;;;;;;10.18;1.58;;;;;;;;;;5014924;28;20502;-67
2022/09/10 05:23:18;;;;;;;8.63;1.60;;;;;;;;;;5038447;28;20103;-67
2022/09/10 05:25:44;;;;;;;7.00;1.33;;;;;;;;;;5032286;28;20035;-68
2022/09/10 05:28:11;;;;;;;6.35;1.20;;;;;;;;;;5013031;28;20043;-67
2022/09/10 05:30:37;;;;;;;6.28;1.25;;;;;;;;;;5031206;28;20025;-67
2022/09/10 05:33:03;;;;;;;6.70;1.50;;;;;;;;;;5012953;28;20092;-67
2022/09/10 05:35:29;;;;;;;9.52;1.70;;;;;;;;;;5035875;28;20025;-67
2022/09/10 05:38:00;;;;;;;5.90;1.30;;;;;;;;;;5032643;28;20040;-67
2022/09/10 05:40:28;;;;;;;5.68;1.50;;;;;;;;;;5031247;28;20024;-68
2022/09/10 05:42:54;;;;;;;7.68;1.48;;;;;;;;;;5021718;28;20159;-67
2022/09/10 05:45:22;;;;;;;5.72;1.35;;;;;;;;;;5028915;28;20029;-67
2022/09/10 05:47:48;;;;;;;9.75;1.70;;;;;;;;;;5032411;28;20033;-67
2022/09/10 05:50:16;;;;;;;8.18;1.60;;;;;;;;;;5026708;28;20029;-67
2022/09/10 05:52:42;;;;;;;7.15;1.60;;;;;;;;;;5014896;28;20136;-67
2022/09/10 05:55:08;;;;;;;9.45;1.70;;;;;;;;;;5037251;28;20037;-67
2022/09/10 05:57:34;;;;;;;9.32;1.60;;;;;;;;;;5029894;28;20450;-67
2022/09/10 06:00:01;;;;;;;7.97;1.50;;;;;;;;;;5026453;28;20079;-67
2022/09/10 06:02:27;;;;;;;8.35;1.70;;;;;;;;;;5033254;28;20656;-67
2022/09/10 06:04:53;;;;;;;8.52;1.60;;;;;;;;;;5035183;28;20579;-67
2022/09/10 06:07:19;;;;;;;6.88;1.50;;;;;;;;;;5034653;28;20060;-67
2022/09/10 06:09:45;;;;;;;9.88;1.63;;;;;;;;;;5031446;28;20524;-66
2022/09/10 06:12:11;;;;;;;11.45;1.98;;;;;;;;;;5040170;28;20029;-67
2022/09/10 06:14:37;;;;;;;8.82;1.65;;;;;;;;;;5020565;28;20032;-67
2022/09/10 06:17:04;;;;;;;14.00;2.05;;;;;;;;;;5037285;28;20032;-66
2022/09/10 06:19:30;;;;;;;8.10;1.80;;;;;;;;;;5041836;28;20347;-67
2022/09/10 06:21:56;;;;;;;9.25;1.80;;;;;;;;;;5030966;28;20118;-66
2022/09/10 06:24:23;;;;;;;9.93;2.15;;;;;;;;;;5041694;28;20039;-66
2022/09/10 06:26:49;;;;;;;6.30;1.65;;;;;;;;;;5034596;28;20020;-66
2022/09/10 06:29:18;;;;;;;9.95;1.80;;;;;;;;;;5038632;28;20479;-67
2022/09/10 06:31:44;;;;;;;10.48;1.98;;;;;;;;;;5035301;28;20068;-67
2022/09/10 06:34:10;;;;;;;10.02;2.33;;;;;;;;;;5033173;28;20103;-67
2022/09/10 06:36:36;;;;;;;11.02;2.20;;;;;;;;;;5015477;28;20029;-67
2022/09/10 06:39:02;;;;;;;8.90;2.05;;;;;;;;;;5029811;28;20136;-67
2022/09/10 06:41:29;;;;;;;7.70;1.70;;;;;;;;;;5032696;28;20059;-68
2022/09/10 06:43:59;;;;;;;8.00;1.63;;;;;;;;;;5030035;28;20024;-70
2022/09/10 06:46:25;;;;;;;8.88;1.67;;;;;;;;;;5029833;28;20033;-66
2022/09/10 06:48:51;;;;;;;10.20;1.75;;;;;;;;;;5034145;28;20025;-67
2022/09/10 06:51:17;;;;;;;11.82;2.03;;;;;;;;;;5034998;28;20435;-67
2022/09/10 06:53:47;;;;;;;9.15;1.80;;;;;;;;;;5029289;28;20041;-68
2022/09/10 06:56:14;;;;;;;8.20;1.75;;;;;;;;;;5033777;28;20146;-67
2022/09/10 06:58:40;;;;;;;6.32;1.67;;;;;;;;;;5038528;28;20021;-66
2022/09/10 07:01:17;;;;;;;6.65;1.58;;;;;;;;;;5031281;28;20102;-68
2022/09/10 07:03:44;;;;;;;6.53;1.50;;;;;;;;;;5012257;28;20462;-67
2022/09/10 07:06:12;;;;;;;5.60;1.20;;;;;;;;;;5024496;28;20751;-67
2022/09/10 07:08:38;;;;;;;7.22;1.40;;;;;;;;;;5006691;28;20624;-68
2022/09/10 07:11:06;;;;;;;9.57;1.67;;;;;;;;;;5000766;28;20459;-67
2022/09/10 07:13:33;;;;;;;8.35;1.42;;;;;;;;;;5024880;28;20542;-69
2022/09/10 07:15:59;;;;;;;6.47;1.30;;;;;;;;;;5020795;28;20858;-67
2022/09/10 07:18:26;;;;;;;6.70;1.25;;;;;;;;;;5022808;28;20051;-67
2022/09/10 07:20:52;;;;;;;7.47;1.40;;;;;;;;;;5018207;28;20513;-66
2022/09/10 07:23:19;;;;;;;6.75;1.30;;;;;;;;;;5022119;28;20108;-68
2022/09/10 07:25:46;;;;;;;6.93;1.40;;;;;;;;;;5023802;28;20037;-67
2022/09/10 07:28:13;;;;;;;6.93;1.60;;;;;;;;;;5029948;28;20020;-67
2022/09/10 07:30:40;;;;;;;6.40;1.20;;;;;;;;;;5029210;28;20033;-67
2022/09/10 07:33:07;;;;;;;6.82;1.40;;;;;;;;;;5026179;28;20044;-67
2022/09/10 07:35:37;;;;;;;9.75;1.77;;;;;;;;;;5026647;28;20024;-67
2022/09/10 07:38:04;;;;;;;5.82;1.50;;;;;;;;;;5018119;28;20029;-67
2022/09/10 07:40:30;;;;;;;7.45;1.50;;;;;;;;;;5024540;28;20030;-67
2022/09/10 07:42:57;;;;;;;7.05;1.40;;;;;;;;;;5021220;28;20736;-67
2022/09/10 07:45:24;;;;;;;7.15;1.20;;;;;;;;;;5027556;28;20032;-67
2022/09/10 07:47:50;;;;;;;5.82;1.45;;;;;;;;;;5025771;28;20024;-67
2022/09/10 07:50:18;;;;;;;7.82;1.40;;;;;;;;;;5024900;28;20033;-67
2022/09/10 07:52:44;;;;;;;6.65;1.50;;;;;;;;;;5021772;28;20357;-67
2022/09/10 07:55:10;;;;;;;5.65;1.15;;;;;;;;;;4999320;28;20041;-67
2022/09/10 07:57:38;;;;;;;6.60;1.13;;;;;;;;;;5008280;28;20032;-67
2022/09/10 08:00:06;;;;;;;8.68;1.27;;;;;;;;;;5018076;28;20025;-67
2022/09/10 08:02:32;;;;;;;6.15;1.45;;;;;;;;;;5004880;28;20382;-67
2022/09/10 08:04:58;;;;;;;7.15;1.40;;;;;;;;;;5018986;28;20384;-67
2022/09/10 08:07:24;;;;;;;10.05;1.60;;;;;;;;;;5023303;28;20020;-67
2022/09/10 08:09:50;;;;;;;6.35;1.58;;;;;;;;;;5003524;28;20131;-67
2022/09/10 08:12:16;;;;;;;6.20;1.40;;;;;;;;;;5026200;28;20111;-67
2022/09/10 08:14:42;;;;;;;5.03;1.23;;;;;;;;;;5024773;28;20033;-67
2022/09/10 08:17:08;;;;;;;7.72;1.55;;;;;;;;;;5019888;28;20037;-67
2022/09/10 08:19:35;;;;;;;6.38;1.30;;;;;;;;;;5026776;28;20395;-67
2022/09/10 08:22:02;;;;;;;6.85;1.50;;;;;;;;;;5017973;28;20571;-67
2022/09/10 08:24:28;;;;;;;6.13;1.30;;;;;;;;;;5000702;28;20025;-67
2022/09/10 08:26:55;;;;;;;5.60;1.45;;;;;;;;;;5017356;28;20025;-67
2022/09/10 08:29:22;;;;;;;4.47;0.95;;;;;;;;;;5019791;28;20789;-67
2022/09/10 08:31:48;;;;;;;5.43;1.27;;;;;;;;;;5017351;28;20528;-66
2022/09/10 08:34:14;;;;;;;5.93;1.05;;;;;;;;;;5017935;28;20035;-67
2022/09/10 08:36:41;;;;;;;6.07;1.13;;;;;;;;;;5018747;28;20035;-67
2022/09/10 08:39:07;;;;;;;6.80;1.30;;;;;;;;;;5014778;28;20068;-67
2022/09/10 08:41:39;;;;;;;7.07;1.58;;;;;;;;;;5021767;28;20028;-67
2022/09/10 08:44:24;;;;;;;5.43;1.23;;;;;;;;;;5018114;28;20383;-67
2022/09/10 08:46:55;;;;;;;6.55;1.30;;;;;;;;;;4999868;28;20559;-66
2022/09/10 08:49:30;;;;;;;8.40;1.40;;;;;;;;;;5000304;28;20025;-66
2022/09/10 08:52:00;;;;;;;7.55;1.45;;;;;;;;;;5013896;28;20647;-66
2022/09/10 08:54:32;;;;;;;7.25;1.42;;;;;;;;;;5017603;28;20147;-67
2022/09/10 08:57:00;;;;;;;6.35;1.40;;;;;;;;;;5013134;28;20028;-66
2022/09/10 08:59:39;;;;;;;5.70;1.40;;;;;;;;;;5021358;28;20501;-66
2022/09/10 09:02:24;;;;;;;6.53;1.70;;;;;;;;;;5014572;28;20035;-66
2022/09/10 09:04:54;;;;;;;11.25;2.35;;;;;;;;;;5015181;28;20087;-66
2022/09/10 09:07:21;;;;;;;6.53;1.80;;;;;;;;;;5019498;28;20039;-66
2022/09/10 09:09:51;;;;;;;11.55;2.05;;;;;;;;;;5000746;28;20017;-66
2022/09/10 09:12:17;;;;;;;11.23;1.95;;;;;;;;;;5016902;28;20466;-66
2022/09/10 09:14:44;;;;;;;6.68;1.48;;;;;;;;;;5017418;28;20366;-66
2022/09/10 09:17:19;;;;;;;4.78;1.20;;;;;;;;;;5017957;28;20034;-67
2022/09/10 09:19:50;;;;;;;6.40;1.38;;;;;;;;;;5018328;28;20029;-67
2022/09/10 09:22:17;;;;;;;5.82;1.30;;;;;;;;;;5019507;28;20603;-67
2022/09/10 09:24:43;;;;;;;6.63;1.42;;;;;;;;;;5018112;28;20071;-65
2022/09/10 09:27:13;;;;;;;6.55;1.42;;;;;;;;;;4998487;28;20478;-64
2022/09/10 09:29:44;;;;;;;6.50;1.10;;;;;;;;;;5020428;28;20151;-64
2022/09/10 09:32:13;;;;;;;6.70;1.27;;;;;;;;;;4999279;28;20037;-65
2022/09/10 09:34:39;;;;;;;4.68;1.10;;;;;;;;;;5026358;28;20355;-65
2022/09/10 09:37:12;;;;;;;6.60;1.17;;;;;;;;;;5029512;28;20040;-64
2022/09/10 09:39:45;;;;;;;7.57;1.35;;;;;;;;;;5008750;28;20094;-65
2022/09/10 09:42:11;;;;;;;5.50;1.20;;;;;;;;;;5026194;28;20060;-64
2022/09/10 09:44:53;;;;;;;6.65;1.30;;;;;;;;;;5029700;28;20466;-64
2022/09/10 09:47:19;;;;;;;5.20;1.00;;;;;;;;;;5026363;28;20029;-65
2022/09/10 09:49:45;;;;;;;6.78;1.02;;;;;;;;;;5023964;28;20029;-65
2022/09/10 09:52:17;;;;;;;5.15;1.20;;;;;;;;;;5019581;28;20068;-64
2022/09/10 09:54:46;;;;;;;4.63;1.15;;;;;;;;;;5028979;28;20056;-63
2022/09/10 09:57:18;;;;;;;6.60;1.00;;;;;;;;;;5026129;28;20039;-63
2022/09/10 09:59:44;;;;;;;3.28;0.70;;;;;;;;;;5029096;28;20032;-63
2022/09/10 10:02:16;;;;;;;6.22;1.00;;;;;;;;;;5020566;28;20091;-63
2022/09/10 10:04:53;;;;;;;4.22;1.08;;;;;;;;;;5026232;28;20033;-65
2022/09/10 10:07:33;;;;;;;4.88;1.13;;;;;;;;;;5022031;28;20374;-62
2022/09/10 10:10:01;;;;;;;4.05;0.90;;;;;;;;;;5022000;28;20025;-63
2022/09/10 10:12:32;;;;;;;4.78;1.05;;;;;;;;;;5009352;28;20075;-63
2022/09/10 10:14:58;;;;;;;4.82;1.27;;;;;;;;;;5018996;28;20391;-63
2022/09/10 10:17:29;;;;;;;5.40;1.25;;;;;;;;;;5022206;28;20377;-63
2022/09/10 10:20:04;;;;;;;6.30;1.13;;;;;;;;;;5022857;28;20040;-63
2022/09/10 10:22:30;;;;;;;;;;;;;;;;;;5020914;28;20035;-63
2022/09/10 10:24:57;;;;;;;4.47;1.00;;;;;;;;;;5018379;28;20334;-64
2022/09/10 10:27:29;;;;;;;4.38;0.82;;;;;;;;;;5030705;28;20120;-64
2022/09/10 10:30:13;;;;;;;4.65;0.90;;;;;;;;;;5005121;28;20746;-64
2022/09/10 10:32:45;;;;;;;6.95;1.25;;;;;;;;;;5029901;28;20029;-65
2022/09/10 10:35:12;;;;;;;5.20;0.98;;;;;;;;;;5020792;28;20468;-65
2022/09/10 10:37:39;;;;;;;5.75;1.10;;;;;;;;;;5025473;28;20029;-65
2022/09/10 10:40:13;;;;;;;4.57;0.80;;;;;;;;;;5005025;28;20040;-65
2022/09/10 10:42:46;;;;;;;5.03;0.97;;;;;;;;;;5024392;28;20410;-66
2022/09/10 10:45:24;;;;;;;4.70;0.90;;;;;;;;;;5017840;28;20832;-65
2022/09/10 10:48:09;;;;;;;4.43;0.88;;;;;;;;;;5015976;28;20840;-65
2022/09/10 10:50:50;;;;;;;5.63;0.77;;;;;;;;;;5022112;28;20499;-65
2022/09/10 10:53:21;;;;;;;3.75;0.80;;;;;;;;;;5027364;28;20115;-65
2022/09/10 10:56:06;;;;;;;4.93;0.82;;;;;;;;;;5028656;28;20151;-65
2022/09/10 10:58:47;;;;;;;3.40;0.70;;;;;;;;;;5029315;28;20060;-65
2022/09/10 11:01:13;;;;;;;6.18;1.02;;;;;;;;;;5022228;28;20033;-65
2022/09/10 11:03:44;;;;;;;6.30;1.05;;;;;;;;;;5025102;28;20039;-66
2022/09/10 11:06:16;;;;;;;5.55;0.82;;;;;;;;;;5003622;28;20184;-65
2022/09/10 11:08:49;;;;;;;3.90;0.88;;;;;;;;;;5029891;28;20079;-66
2022/09/10 11:11:20;;;;;;;7.10;1.20;;;;;;;;;;5024807;28;20482;-66
2022/09/10 11:13:50;;;;;;;7.00;1.05;;;;;;;;;;5027016;28;20479;-66
2022/09/10 11:16:25;;;;;;;5.95;0.95;;;;;;;;;;5025461;28;20036;-66
2022/09/10 11:18:58;;;;;;;3.67;0.90;;;;;;;;;;5004027;28;20120;-66
2022/09/10 11:21:28;;;;;;;5.93;1.00;;;;;;;;;;5025915;28;20391;-68
2022/09/10 11:23:54;;;;;;;5.13;0.95;;;;;;;;;;5023769;28;20028;-68
2022/09/10 11:26:27;;;;;;;6.20;0.90;;;;;;;;;;5027253;28;20493;-69
2022/09/10 11:28:59;;;;;;;4.57;0.90;;;;;;;;;;5014952;28;20029;-69
2022/09/10 11:31:32;;;;;;;3.88;0.80;;;;;;;;;;5020930;28;20055;-69
2022/09/10 11:34:06;;;;;;;3.92;0.95;;;;;;;;;;5002536;28;20102;-69
2022/09/10 11:36:52;;;;;;;4.67;0.90;;;;;;;;;;5024387;28;20031;-69
2022/09/10 11:39:22;;;;;;;6.18;1.00;;;;;;;;;;4992312;28;20580;-69
2022/09/10 11:41:50;;;;;;;5.90;1.10;;;;;;;;;;5005854;28;20553;-68
2022/09/10 11:44:35;;;;;;;3.33;0.90;;;;;;;;;;5023483;28;20025;-69
2022/09/10 11:47:28;;;;;;;4.57;0.90;;;;;;;;;;5007192;28;20347;-69
2022/09/10 11:49:57;;;;;;;4.57;1.00;;;;;;;;;;5023806;28;20040;-69
2022/09/10 11:52:27;;;;;;;5.78;1.30;;;;;;;;;;5028367;28;20025;-71
2022/09/10 11:54:53;;;;;;;4.95;1.02;;;;;;;;;;5014470;28;20048;-69
2022/09/10 11:57:38;;;;;;;7.35;1.02;;;;;;;;;;5025190;28;20214;-69
2022/09/10 12:00:17;;;;;;;5.65;0.95;;;;;;;;;;5022246;28;20490;-69
2022/09/10 12:02:56;;;;;;;5.43;1.00;;;;;;;;;;4996716;28;20741;-68
2022/09/10 12:05:37;;;;;;;4.85;1.00;;;;;;;;;;5026675;28;20072;-68
2022/09/10 12:08:13;;;;;;;4.43;1.00;;;;;;;;;;4999655;28;20441;-64
2022/09/10 12:10:59;;;;;;;4.63;1.00;;;;;;;;;;5006932;28;20077;-67
2022/09/10 12:13:26;;;;;;;5.00;0.82;;;;;;;;;;5020604;28;20375;-69
2022/09/10 12:15:54;;;;;;;5.82;1.08;;;;;;;;;;5017908;28;20102;-70
2022/09/10 12:18:44;;;;;;;4.72;0.90;;;;;;;;;;5007293;28;20025;-67
2022/09/10 12:21:26;;;;;;;4.63;1.05;;;;;;;;;;5011034;28;20071;-68
2022/09/10 12:23:53;;;;;;;6.18;1.20;;;;;;;;;;5018994;28;20763;-68
2022/09/10 12:26:20;;;;;;;4.30;0.95;;;;;;;;;;5024183;28;20068;-68
2022/09/10 12:28:52;;;;;;;4.97;1.10;;;;;;;;;;5007658;28;20037;-68
2022/09/10 12:31:22;;;;;;;5.68;1.30;;;;;;;;;;5020067;28;20474;-67
2022/09/10 12:34:06;;;;;;;5.30;1.30;;;;;;;;;;5015576;28;20034;-68
2022/09/10 12:36:33;;;;;;;4.65;0.95;;;;;;;;;;5022670;28;20033;-67
2022/09/10 12:39:18;;;;;;;8.25;0.95;;;;;;;;;;5020159;28;20033;-67
2022/09/10 12:41:45;;;;;;;6.50;1.27;;;;;;;;;;5022949;28;20588;-67
2022/09/10 12:44:26;;;;;;;4.72;1.17;;;;;;;;;;5019432;28;20021;-68
2022/09/10 12:47:11;;;;;;;4.00;0.98;;;;;;;;;;5022623;28;20896;-68
2022/09/10 12:49:56;;;;;;;6.13;1.50;;;;;;;;;;5025625;28;20395;-68
2022/09/10 12:52:34;;;;;;;5.53;1.17;;;;;;;;;;5024334;28;20482;-68
2022/09/10 12:55:12;;;;;;;5.10;1.27;;;;;;;;;;5022210;28;20076;-67
2022/09/10 12:57:39;;;;;;;5.10;1.17;;;;;;;;;;5021438;28;20137;-69
2022/09/10 13:00:14;;;;;;;5.15;1.00;;;;;;;;;;5024030;28;20041;-68
2022/09/10 13:02:57;;;;;;;5.03;1.20;;;;;;;;;;5023030;28;20028;-66
2022/09/10 13:05:30;;;;;;;10.55;2.03;;;;;;;;;;5025224;28;20053;-65
2022/09/10 13:08:20;;;;;;;4.88;1.10;;;;;;;;;;5017749;28;20021;-65
2022/09/10 13:10:46;;;;;;;6.38;1.10;;;;;;;;;;5016318;28;20557;-66
2022/09/10 13:13:38;;;;;;;20.67;3.10;;;;;;;;;;5020556;28;20025;-65
2022/09/10 13:16:05;;;;;;;7.82;1.77;;;;;;;;;;5018612;28;20044;-66
2022/09/10 13:18:32;;;;;;;5.78;1.10;;;;;;;;;;5028646;28;20256;-66
2022/09/10 13:20:59;;;;;;;7.28;1.60;;;;;;;;;;5021491;28;20252;-66
2022/09/10 13:23:46;;;;;;;5.95;1.20;;;;;;;;;;5026228;28;20029;-66
2022/09/10 13:26:32;;;;;;;7.75;1.70;;;;;;;;;;5018670;28;20614;-67
2022/09/10 13:29:00;;;;;;;6.10;1.50;;;;;;;;;;5017417;28;20021;-66
2022/09/10 13:31:39;;;;;;;5.82;1.38;;;;;;;;;;5023328;28;20086;-65
2022/09/10 13:34:14;;;;;;;6.38;1.30;;;;;;;;;;5015552;28;20331;-65
2022/09/10 13:36:59;;;;;;;5.38;1.23;;;;;;;;;;5022454;28;20486;-67
2022/09/10 13:39:33;;;;;;;5.85;1.10;;;;;;;;;;5022410;28;20048;-68
2022/09/10 13:42:05;;;;;;;6.03;1.17;;;;;;;;;;5019983;28;20451;-67
2022/09/10 13:44:34;;;;;;;8.35;1.65;;;;;;;;;;5020084;28;20029;-67
2022/09/10 13:47:03;;;;;;;7.93;1.27;;;;;;;;;;5017155;28;20061;-66
2022/09/10 13:49:53;;;;;;;5.68;1.20;;;;;;;;;;5023161;28;20035;-67
2022/09/10 13:52:22;;;;;;;5.78;1.33;;;;;;;;;;5000406;28;20483;-67
2022/09/10 13:54:54;;;;;;;6.30;1.50;;;;;;;;;;5016124;28;20418;-66
2022/09/10 13:57:31;;;;;;;8.75;1.98;;;;;;;;;;5020977;28;20450;-66
2022/09/10 14:00:09;;;;;;;6.00;1.77;;;;;;;;;;4999527;28;20548;-65
2022/09/10 14:02:41;;;;;;;7.82;1.42;;;;;;;;;;5000306;28;20021;-65
2022/09/10 14:05:27;;;;;;;6.00;1.35;;;;;;;;;;5019116;28;20037;-67
2022/09/10 14:07:58;;;;;;;8.27;1.43;;;;;;;;;;5019341;28;20025;-66
2022/09/10 14:10:25;;;;;;;5.28;1.58;;;;;;;;;;5021098;28;20033;-65
2022/09/10 14:12:52;;;;;;;5.22;1.27;;;;;;;;;;5014449;28;20086;-65
2022/09/10 14:15:20;;;;;;;6.28;1.40;;;;;;;;;;5015115;28;20313;-67
2022/09/10 14:17:49;;;;;;;4.82;1.10;;;;;;;;;;5018127;28;20459;-65
2022/09/10 14:20:29;;;;;;;6.20;1.27;;;;;;;;;;5020845;28;20013;-65
2022/09/10 14:23:02;;;;;;;8.38;1.80;;;;;;;;;;5017308;28;20434;-67
2022/09/10 14:25:30;;;;;;;5.68;1.65;;;;;;;;;;5019649;28;20037;-67
2022/09/10 14:28:15;;;;;;;7.65;1.42;;;;;;;;;;5000508;28;20052;-67
2022/09/10 14:30:42;;;;;;;6.47;1.60;;;;;;;;;;5023730;28;20029;-67
2022/09/10 14:33:21;;;;;;;6.30;1.25;;;;;;;;;;4999777;28;20431;-66
2022/09/10 14:35:51;;;;;;;6.07;1.38;;;;;;;;;;5020723;28;20102;-67
2022/09/10 14:38:26;;;;;;;5.97;1.20;;;;;;;;;;5022002;28;20028;-67
2022/09/10 14:40:57;;;;;;;6.50;1.25;;;;;;;;;;5018807;28;20052;-67
2022/09/10 14:43:27;;;;;;;6.68;1.38;;;;;;;;;;5005569;28;20033;-67
2022/09/10 14:45:54;;;;;;;9.77;1.77;;;;;;;;;;5001932;28;20025;-64
2022/09/10 14:48:27;;;;;;;7.53;1.60;;;;;;;;;;5020981;28;20414;-67
2022/09/10 14:51:13;;;;;;;5.32;1.30;;;;;;;;;;4998999;28;20348;-67
2022/09/10 14:53:39;;;;;;;6.80;2.00;;;;;;;;;;5003704;28;20076;-67
2022/09/10 14:56:09;;;;;;;7.55;1.60;;;;;;;;;;5017179;28;20293;-65
2022/09/10 14:58:36;;;;;;;8.85;1.45;;;;;;;;;;5003229;28;20025;-65